Time;durP1;ratioP1;P1;durP2;ratioP2;P2;SDS_P1;SDS_P2;PMS_P1;PMS_P2;Temp;Humidity;BMP_temperature;BMP_pressure;BME280_temperature;BME280_humidity;BME280_pressure;Samples;Min_cycle;Max_cycle;Signal;HPM_P1;HPM_P2
2022/01/06 00:01:25;;;;;;;0.00;0.00;;;3.70;99.90;;;;;;4960215;28;20050;-61
2022/01/06 00:03:52;;;;;;;0.00;0.00;;;3.70;99.90;;;;;;4960241;28;20096;-61
2022/01/06 00:06:19;;;;;;;0.00;0.00;;;3.70;99.90;;;;;;4959563;28;20046;-61
2022/01/06 00:08:44;;;;;;;0.00;0.00;;;3.70;99.90;;;;;;4957955;28;20046;-61
2022/01/06 00:11:11;;;;;;;0.00;0.00;;;3.70;99.90;;;;;;4960248;28;20508;-61
2022/01/06 00:16:43;;;;;;;0.00;0.00;;;3.80;99.90;;;;;;4960387;28;20051;-61
2022/01/06 00:24:17;;;;;;;0.00;0.00;;;3.90;99.90;;;;;;4958955;28;20441;-61
2022/01/06 00:26:43;;;;;;;0.00;0.00;;;3.90;99.90;;;;;;4958951;28;20055;-61
2022/01/06 00:29:09;;;;;;;0.00;0.00;;;3.90;99.90;;;;;;4970798;28;20080;-62
2022/01/06 00:31:35;;;;;;;0.00;0.00;;;3.90;99.90;;;;;;4958767;28;20086;-62
2022/01/06 00:34:01;;;;;;;0.00;0.00;;;3.90;99.90;;;;;;4960432;28;20540;-61
2022/01/06 00:36:27;;;;;;;0.00;0.00;;;4.20;99.90;;;;;;4959271;28;20074;-61
2022/01/06 00:38:53;;;;;;;0.00;0.00;;;3.90;99.90;;;;;;4958690;28;20472;-62
2022/01/06 00:41:19;;;;;;;0.00;0.00;;;3.90;99.90;;;;;;4960024;28;20594;-62
2022/01/06 00:43:44;;;;;;;0.00;0.00;;;3.90;99.90;;;;;;4959552;28;20061;-61
2022/01/06 00:46:10;;;;;;;0.00;0.00;;;3.90;99.90;;;;;;4959294;28;20478;-62
2022/01/06 00:48:36;;;;;;;0.00;0.00;;;3.90;99.90;;;;;;4959574;28;20046;-62
2022/01/06 00:51:02;;;;;;;0.00;0.00;;;4.40;99.90;;;;;;4959689;28;20047;-62
2022/01/06 00:53:27;;;;;;;0.00;0.00;;;3.70;99.90;;;;;;4958483;28;20704;-62
2022/01/06 00:55:53;;;;;;;0.00;0.00;;;3.70;99.90;;;;;;4958030;28;20058;-62
2022/01/06 00:58:19;;;;;;;0.00;0.00;;;3.60;99.90;;;;;;4959361;28;20079;-61
2022/01/06 01:00:44;;;;;;;0.00;0.00;;;4.30;99.90;;;;;;4957795;28;20053;-60
2022/01/06 01:03:18;;;;;;;0.00;0.00;;;3.60;99.90;;;;;;4958778;28;20039;-60
2022/01/06 01:05:46;;;;;;;0.00;0.00;;;3.60;99.90;;;;;;4959100;28;20053;-59
2022/01/06 01:08:12;;;;;;;0.00;0.00;;;3.60;99.90;;;;;;4957271;28;20046;-59
2022/01/06 01:10:38;;;;;;;0.00;0.00;;;3.60;99.90;;;;;;4958928;28;20057;-61
2022/01/06 01:13:07;;;;;;;0.00;0.00;;;3.60;99.90;;;;;;4958880;28;20387;-62
2022/01/06 01:15:34;;;;;;;0.00;0.00;;;3.60;99.90;;;;;;4958980;28;20062;-62
2022/01/06 01:18:06;;;;;;;0.00;0.00;;;3.60;99.90;;;;;;4958081;28;20104;-62
2022/01/06 01:20:33;;;;;;;0.00;0.00;;;3.60;99.90;;;;;;4958655;28;20049;-61
2022/01/06 01:22:59;;;;;;;0.00;0.00;;;3.50;99.90;;;;;;4959346;28;20413;-62
2022/01/06 01:25:25;;;;;;;0.00;0.00;;;3.40;99.90;;;;;;4958316;28;20046;-61
2022/01/06 01:27:54;;;;;;;0.00;0.00;;;3.30;99.90;;;;;;4960988;28;20699;-62
2022/01/06 01:30:22;;;;;;;0.00;0.00;;;3.20;99.90;;;;;;4967235;28;20505;-62
2022/01/06 01:32:51;;;;;;;0.00;0.00;;;3.40;99.90;;;;;;4958901;28;20914;-62
2022/01/06 01:35:17;;;;;;;0.00;0.00;;;3.10;99.90;;;;;;4958891;28;20054;-61
2022/01/06 01:37:43;;;;;;;0.00;0.00;;;3.00;99.90;;;;;;4958156;28;20046;-62
2022/01/06 01:40:11;;;;;;;0.00;0.00;;;2.90;99.90;;;;;;4958159;28;20078;-61
2022/01/06 01:42:37;;;;;;;0.00;0.00;;;2.80;99.90;;;;;;4958889;28;20054;-61
2022/01/06 01:45:05;;;;;;;0.00;0.00;;;2.70;99.90;;;;;;4958550;28;20096;-61
2022/01/06 01:47:41;;;;;;;0.00;0.00;;;2.60;99.90;;;;;;4958885;28;20043;-61
2022/01/06 01:50:12;;;;;;;0.00;0.00;;;2.50;99.90;;;;;;4959016;28;20456;-61
2022/01/06 01:52:47;;;;;;;0.00;0.00;;;2.50;99.90;;;;;;4957941;28;20631;-62
2022/01/06 01:55:36;;;;;;;0.00;0.00;;;2.40;99.90;;;;;;4956606;28;20069;-61
2022/01/06 01:58:03;;;;;;;0.00;0.00;;;2.40;99.90;;;;;;4958512;28;20042;-62
2022/01/06 02:00:30;;;;;;;0.00;0.00;;;2.30;99.90;;;;;;4962471;28;20055;-61
2022/01/06 02:02:56;;;;;;;0.00;0.00;;;2.20;99.90;;;;;;4961864;28;20050;-61
2022/01/06 02:05:26;;;;;;;0.00;0.00;;;2.20;99.90;;;;;;4961979;28;20122;-62
2022/01/06 02:08:00;;;;;;;0.00;0.00;;;2.10;99.90;;;;;;4961219;28;20058;-61
2022/01/06 02:10:28;;;;;;;0.00;0.00;;;2.00;99.90;;;;;;4961588;28;20093;-61
2022/01/06 02:12:57;;;;;;;0.00;0.00;;;1.90;99.90;;;;;;4961469;28;20142;-61
2022/01/06 02:15:23;;;;;;;0.00;0.00;;;1.90;99.90;;;;;;4961048;28;20442;-61
2022/01/06 02:17:49;;;;;;;0.00;0.00;;;1.60;99.90;;;;;;4961780;28;20152;-62
2022/01/06 02:20:17;;;;;;;0.00;0.00;;;1.70;99.90;;;;;;4961836;28;20042;-62
2022/01/06 02:22:43;;;;;;;0.00;0.00;;;1.70;99.90;;;;;;4961424;28;20105;-61
2022/01/06 02:25:46;;;;;;;0.00;0.00;;;1.60;99.90;;;;;;4960610;28;20122;-62
2022/01/06 02:28:11;;;;;;;0.00;0.00;;;1.60;99.90;;;;;;4968387;28;20059;-61
2022/01/06 02:30:37;;;;;;;0.00;0.00;;;1.50;99.90;;;;;;4969346;28;20053;-62
2022/01/06 02:33:04;;;;;;;0.00;0.00;;;1.50;99.90;;;;;;4960026;28;20055;-62
2022/01/06 02:35:31;;;;;;;0.00;0.00;;;1.50;99.90;;;;;;4960682;28;20051;-61
2022/01/06 02:37:57;;;;;;;0.00;0.00;;;1.60;99.90;;;;;;4958826;28;20590;-61
2022/01/06 02:40:24;;;;;;;0.00;0.00;;;1.60;99.90;;;;;;4961491;28;20043;-62
2022/01/06 02:42:55;;;;;;;0.00;0.00;;;1.70;99.90;;;;;;4961334;28;20051;-61
2022/01/06 02:45:25;;;;;;;0.00;0.00;;;1.90;99.90;;;;;;4960877;28;20098;-61
2022/01/06 02:47:50;;;;;;;0.00;0.00;;;2.10;99.90;;;;;;4961109;28;20165;-61
2022/01/06 02:50:17;;;;;;;0.00;0.00;;;2.20;99.90;;;;;;4961292;28;20528;-62
2022/01/06 02:52:43;;;;;;;0.00;0.00;;;2.30;99.90;;;;;;4961209;28;20105;-61
2022/01/06 02:55:12;;;;;;;0.00;0.00;;;2.40;99.90;;;;;;4958846;28;20096;-61
2022/01/06 02:57:39;;;;;;;0.00;0.00;;;2.40;99.90;;;;;;4961203;28;20057;-61
2022/01/06 03:00:09;;;;;;;0.00;0.00;;;2.40;99.90;;;;;;4960610;28;20192;-61
2022/01/06 03:02:35;;;;;;;0.00;0.00;;;2.40;99.90;;;;;;4960339;28;20508;-62
2022/01/06 03:05:01;;;;;;;0.00;0.00;;;2.30;99.90;;;;;;4961396;28;20050;-62
2022/01/06 03:07:27;;;;;;;0.00;0.00;;;2.30;99.90;;;;;;4960837;28;20043;-61
2022/01/06 03:09:55;;;;;;;0.00;0.00;;;2.10;99.90;;;;;;4959753;28;20069;-61
2022/01/06 03:12:32;;;;;;;0.00;0.00;;;1.90;99.90;;;;;;4960291;28;20047;-62
2022/01/06 03:14:58;;;;;;;0.00;0.00;;;2.00;99.90;;;;;;4961010;28;20347;-61
2022/01/06 03:17:24;;;;;;;0.00;0.00;;;2.10;99.90;;;;;;4960539;28;20497;-62
2022/01/06 03:19:50;;;;;;;0.00;0.00;;;2.30;99.90;;;;;;4958637;28;20386;-62
2022/01/06 03:22:16;;;;;;;0.00;0.00;;;2.10;99.90;;;;;;4960760;28;20620;-62
2022/01/06 03:24:42;;;;;;;0.00;0.00;;;1.70;99.90;;;;;;4942608;28;20572;-61
2022/01/06 03:27:08;;;;;;;0.00;0.00;;;1.70;99.90;;;;;;4960565;28;20687;-61
2022/01/06 03:29:33;;;;;;;0.00;0.00;;;1.60;99.90;;;;;;4970680;28;20055;-61
2022/01/06 03:31:59;;;;;;;0.00;0.00;;;1.50;99.90;;;;;;4960520;28;20042;-62
2022/01/06 03:34:26;;;;;;;0.00;0.00;;;1.50;99.90;;;;;;4960507;28;20490;-62
2022/01/06 03:36:52;;;;;;;0.00;0.00;;;1.40;99.90;;;;;;4960324;28;20035;-61
2022/01/06 03:39:18;;;;;;;0.00;0.00;;;1.40;99.90;;;;;;4959669;28;20057;-62
2022/01/06 03:41:44;;;;;;;0.00;0.00;;;1.30;99.90;;;;;;4960314;28;20039;-61
2022/01/06 03:44:09;;;;;;;0.00;0.00;;;1.20;99.90;;;;;;4958927;28;20047;-62
2022/01/06 03:46:35;;;;;;;0.00;0.00;;;1.10;99.90;;;;;;4960188;28;20092;-62
2022/01/06 03:49:00;;;;;;;0.00;0.00;;;1.10;99.90;;;;;;4960015;28;20043;-62
2022/01/06 03:51:26;;;;;;;0.00;0.00;;;1.10;99.90;;;;;;4960241;28;20154;-61
2022/01/06 03:53:52;;;;;;;0.00;0.00;;;1.10;99.90;;;;;;4959700;28;20042;-62
2022/01/06 03:56:18;;;;;;;0.00;0.00;;;1.10;99.90;;;;;;4960220;28;20039;-62
2022/01/06 03:58:44;;;;;;;0.00;0.00;;;1.00;99.90;;;;;;4958102;28;20043;-61
2022/01/06 04:01:10;;;;;;;0.00;0.00;;;1.00;99.90;;;;;;4960055;28;20679;-61
2022/01/06 04:03:36;;;;;;;0.00;0.00;;;0.90;99.90;;;;;;4960478;28;20035;-62
2022/01/06 04:06:02;;;;;;;0.00;0.00;;;0.90;99.90;;;;;;4960354;28;20046;-61
2022/01/06 04:08:27;;;;;;;0.00;0.00;;;0.70;99.90;;;;;;4959077;28;20039;-62
2022/01/06 04:10:53;;;;;;;0.00;0.00;;;1.00;99.90;;;;;;4959788;28;20417;-62
2022/01/06 04:13:19;;;;;;;0.00;0.00;;;0.90;99.90;;;;;;4960018;28;20054;-61
2022/01/06 04:15:45;;;;;;;0.00;0.00;;;0.90;99.90;;;;;;4959251;28;20082;-62
2022/01/06 04:18:11;;;;;;;0.00;0.00;;;0.90;99.90;;;;;;4960258;28;21017;-61
2022/01/06 04:20:37;;;;;;;0.00;0.00;;;0.90;99.90;;;;;;4959585;28;20046;-61
2022/01/06 04:23:02;;;;;;;0.00;0.00;;;1.60;99.90;;;;;;4959228;28;20043;-61
2022/01/06 04:25:28;;;;;;;0.00;0.00;;;1.00;99.90;;;;;;4959735;28;20051;-61
2022/01/06 04:27:54;;;;;;;0.00;0.00;;;1.00;99.90;;;;;;4961878;28;20050;-61
2022/01/06 04:30:19;;;;;;;0.00;0.00;;;0.90;99.90;;;;;;4968159;28;20043;-61
2022/01/06 04:32:45;;;;;;;0.00;0.00;;;0.90;99.90;;;;;;4959656;28;20050;-61
2022/01/06 04:35:11;;;;;;;0.00;0.00;;;0.80;99.90;;;;;;4957745;28;20096;-61
2022/01/06 04:37:37;;;;;;;0.00;0.00;;;0.80;99.90;;;;;;4959070;28;20050;-62
2022/01/06 04:40:07;;;;;;;0.00;0.00;;;0.70;99.90;;;;;;4958209;28;20051;-61
2022/01/06 04:42:34;;;;;;;0.00;0.00;;;0.80;99.90;;;;;;4959891;28;20039;-62
2022/01/06 04:44:59;;;;;;;0.00;0.00;;;0.80;99.90;;;;;;4957831;28;20429;-61
2022/01/06 04:47:25;;;;;;;0.00;0.00;;;0.80;99.90;;;;;;4959358;28;20043;-61
2022/01/06 04:49:51;;;;;;;0.00;0.00;;;0.80;99.90;;;;;;4959295;28;20078;-61
2022/01/06 04:52:17;;;;;;;0.00;0.00;;;0.80;99.90;;;;;;4959680;28;20083;-61
2022/01/06 04:54:42;;;;;;;0.00;0.00;;;0.70;99.90;;;;;;4957008;28;20055;-61
2022/01/06 04:57:08;;;;;;;0.50;0.50;;;0.80;99.90;;;;;;4959244;28;20042;-61
2022/01/06 04:59:34;;;;;;;0.00;0.00;;;0.70;99.90;;;;;;4958023;28;20682;-61
2022/01/06 05:01:59;;;;;;;0.00;0.00;;;0.80;99.90;;;;;;4959024;28;20092;-61
2022/01/06 05:04:25;;;;;;;0.00;0.00;;;0.80;99.90;;;;;;4958922;28;20047;-61
2022/01/06 05:06:51;;;;;;;0.00;0.00;;;0.70;99.90;;;;;;4957916;28;20057;-61
2022/01/06 05:09:18;;;;;;;0.00;0.00;;;0.70;99.90;;;;;;4958604;28;20104;-61
2022/01/06 05:11:43;;;;;;;0.00;0.00;;;0.70;99.90;;;;;;4958223;28;20103;-61
2022/01/06 05:14:10;;;;;;;0.00;0.00;;;0.70;99.90;;;;;;4959218;28;20679;-61
2022/01/06 05:16:36;;;;;;;0.00;0.00;;;1.40;99.90;;;;;;4959219;28;20072;-61
2022/01/06 05:19:02;;;;;;;0.00;0.00;;;0.70;99.90;;;;;;4959375;28;20047;-61
2022/01/06 05:21:30;;;;;;;0.00;0.00;;;0.70;99.90;;;;;;4958337;28;20053;-61
2022/01/06 05:23:56;;;;;;;0.00;0.00;;;0.70;99.90;;;;;;4957025;28;20051;-61
2022/01/06 05:26:22;;;;;;;0.00;0.00;;;0.60;99.90;;;;;;4958923;28;20046;-61
2022/01/06 05:28:48;;;;;;;0.00;0.00;;;0.60;99.90;;;;;;4966815;28;20069;-61
2022/01/06 05:31:13;;;;;;;0.00;0.00;;;0.60;99.90;;;;;;4961023;28;20043;-61
2022/01/06 05:33:39;;;;;;;0.00;0.00;;;0.60;99.90;;;;;;4957856;28;20035;-61
2022/01/06 05:36:05;;;;;;;0.00;0.00;;;-0.40;99.90;;;;;;4958491;28;20129;-61
2022/01/06 05:38:31;;;;;;;0.00;0.00;;;;;;;;;;4958563;28;20129;-61
2022/01/06 05:40:57;;;;;;;0.20;0.20;;;0.50;99.90;;;;;;4958084;28;20581;-61
2022/01/06 05:43:23;;;;;;;0.00;0.00;;;0.50;99.90;;;;;;4958655;28;20064;-61
2022/01/06 05:45:56;;;;;;;0.00;0.00;;;0.50;99.90;;;;;;4958678;28;20082;-61
2022/01/06 05:48:22;;;;;;;0.00;0.00;;;0.50;99.90;;;;;;4958096;28;20053;-61
2022/01/06 05:50:48;;;;;;;0.00;0.00;;;0.50;99.90;;;;;;4958031;28;20460;-61
2022/01/06 05:53:17;;;;;;;0.00;0.00;;;1.60;99.90;;;;;;4957921;28;20134;-61
2022/01/06 05:55:43;;;;;;;0.00;0.00;;;0.50;99.90;;;;;;4957189;28;20057;-61
2022/01/06 05:58:09;;;;;;;0.00;0.00;;;0.50;99.90;;;;;;4956970;28;20051;-61
2022/01/06 06:00:35;;;;;;;0.00;0.00;;;1.30;99.90;;;;;;4958532;28;20039;-61
2022/01/06 06:03:01;;;;;;;0.00;0.00;;;0.60;99.90;;;;;;4958923;28;20051;-61
2022/01/06 06:05:26;;;;;;;0.00;0.00;;;0.70;99.90;;;;;;4958499;28;20054;-61
2022/01/06 06:07:52;;;;;;;0.00;0.00;;;0.80;99.90;;;;;;4955906;28;20050;-61
2022/01/06 06:10:18;;;;;;;0.00;0.00;;;0.80;99.90;;;;;;4958549;28;20137;-61
2022/01/06 06:12:43;;;;;;;0.00;0.00;;;0.70;99.90;;;;;;4958545;28;20047;-62
2022/01/06 06:15:09;;;;;;;0.00;0.00;;;0.70;99.90;;;;;;4958422;28;20086;-63
2022/01/06 06:17:35;;;;;;;0.00;0.00;;;0.90;99.90;;;;;;4957069;28;20271;-60
2022/01/06 06:20:00;;;;;;;0.00;0.00;;;0.70;99.90;;;;;;4958618;28;20035;-61
2022/01/06 06:22:26;;;;;;;0.00;0.00;;;0.50;99.90;;;;;;4957705;28;20051;-60
2022/01/06 06:24:52;;;;;;;0.00;0.00;;;0.40;99.90;;;;;;4957535;28;20039;-61
2022/01/06 06:27:17;;;;;;;0.00;0.00;;;0.40;99.90;;;;;;4957225;28;20116;-60
2022/01/06 06:29:43;;;;;;;0.00;0.00;;;0.40;99.90;;;;;;4966568;28;20057;-60
2022/01/06 06:32:09;;;;;;;0.00;0.00;;;0.40;99.90;;;;;;4977700;28;20056;-60
2022/01/06 06:34:35;;;;;;;0.00;0.00;;;0.40;99.90;;;;;;4977132;28;20470;-60
2022/01/06 06:37:01;;;;;;;0.00;0.00;;;0.30;99.90;;;;;;4977891;28;20085;-61
2022/01/06 06:39:26;;;;;;;0.00;0.00;;;0.30;99.90;;;;;;4976436;28;20043;-60
2022/01/06 06:41:52;;;;;;;0.00;0.00;;;0.20;99.90;;;;;;4977169;28;20910;-60
2022/01/06 06:44:18;;;;;;;0.00;0.00;;;0.20;99.90;;;;;;4977462;28;20050;-60
2022/01/06 06:46:44;;;;;;;0.00;0.00;;;0.20;99.90;;;;;;4980809;28;20493;-60
2022/01/06 06:49:09;;;;;;;0.00;0.00;;;0.00;99.90;;;;;;4979754;28;20535;-60
2022/01/06 06:51:35;;;;;;;0.00;0.00;;;0.00;99.90;;;;;;4979265;28;20051;-60
2022/01/06 06:54:01;;;;;;;0.00;0.00;;;0.00;99.90;;;;;;4979149;28;20042;-60
2022/01/06 06:56:27;;;;;;;0.00;0.00;;;-0.10;99.90;;;;;;4980704;28;20078;-61
2022/01/06 06:58:53;;;;;;;0.00;0.00;;;-0.10;99.90;;;;;;4980246;28;20084;-60
2022/01/06 07:01:18;;;;;;;0.00;0.00;;;-0.10;99.90;;;;;;4980657;28;20051;-60
2022/01/06 07:03:44;;;;;;;0.00;0.00;;;-0.10;99.90;;;;;;4979613;28;20056;-60
2022/01/06 07:06:10;;;;;;;0.00;0.00;;;-0.20;99.90;;;;;;4980141;28;20077;-60
2022/01/06 07:08:35;;;;;;;0.00;0.00;;;-0.10;99.90;;;;;;4978240;28;20130;-60
2022/01/06 07:11:01;;;;;;;0.00;0.00;;;-0.10;99.90;;;;;;4980394;28;20054;-60
2022/01/06 07:13:26;;;;;;;0.00;0.00;;;-0.10;99.90;;;;;;4979736;28;20050;-61
2022/01/06 07:15:52;;;;;;;0.00;0.00;;;0.00;99.90;;;;;;4980153;28;20073;-60
2022/01/06 07:18:18;;;;;;;0.00;0.00;;;-0.10;99.90;;;;;;4979036;28;20058;-61
2022/01/06 07:20:43;;;;;;;0.00;0.00;;;-0.10;99.90;;;;;;4979869;28;20043;-60
2022/01/06 07:23:09;;;;;;;0.00;0.00;;;-0.10;99.90;;;;;;4979180;28;20092;-61
2022/01/06 07:25:35;;;;;;;0.00;0.00;;;-0.10;99.90;;;;;;4980287;28;20065;-61
2022/01/06 07:28:01;;;;;;;0.00;0.00;;;-0.10;99.90;;;;;;4974745;28;20051;-61
2022/01/06 07:30:29;;;;;;;3.20;2.92;;;-0.20;99.90;;;;;;4969081;28;20077;-61
2022/01/06 07:32:55;;;;;;;0.00;0.00;;;-0.10;99.90;;;;;;4960118;28;20489;-61
2022/01/06 07:35:21;;;;;;;0.00;0.00;;;-0.10;99.90;;;;;;4960553;28;20047;-61
2022/01/06 07:37:48;;;;;;;0.00;0.00;;;-0.10;99.90;;;;;;4959940;28;20049;-60
2022/01/06 07:40:14;;;;;;;0.00;0.00;;;-0.10;99.90;;;;;;4958698;28;20112;-61
2022/01/06 07:42:39;;;;;;;0.00;0.00;;;0.00;99.90;;;;;;4960373;28;20057;-62
2022/01/06 07:45:06;;;;;;;0.00;0.00;;;0.00;99.90;;;;;;4958540;28;20047;-62
2022/01/06 07:47:35;;;;;;;0.00;0.00;;;0.00;99.90;;;;;;4959473;28;20053;-61
2022/01/06 07:50:01;;;;;;;0.00;0.00;;;0.40;99.90;;;;;;4959733;28;20047;-61
2022/01/06 07:52:26;;;;;;;0.00;0.00;;;0.10;99.90;;;;;;4959284;28;20092;-61
2022/01/06 07:54:52;;;;;;;0.00;0.00;;;0.10;99.90;;;;;;4960109;28;20272;-62
2022/01/06 07:57:18;;;;;;;0.00;0.00;;;0.10;99.90;;;;;;4959284;28;20043;-62
2022/01/06 07:59:43;;;;;;;0.00;0.00;;;0.10;99.90;;;;;;5017283;28;20052;-62
2022/01/06 08:02:09;;;;;;;0.00;0.00;;;0.10;99.90;;;;;;5061500;28;20078;-61
2022/01/06 08:04:38;;;;;;;0.00;0.00;;;0.10;99.90;;;;;;5061853;28;20048;-61
2022/01/06 08:07:04;;;;;;;0.00;0.00;;;0.00;99.90;;;;;;5060436;28;20094;-62
2022/01/06 08:09:29;;;;;;;0.00;0.00;;;0.00;99.90;;;;;;5061326;28;20479;-61
2022/01/06 08:11:55;;;;;;;0.00;0.00;;;0.00;99.90;;;;;;5061220;28;20523;-62
2022/01/06 08:14:20;;;;;;;0.00;0.00;;;0.00;99.90;;;;;;5061343;28;20052;-61
2022/01/06 08:16:46;;;;;;;0.00;0.00;;;-0.10;99.90;;;;;;5060810;28;20550;-61
2022/01/06 08:19:12;;;;;;;0.00;0.00;;;0.00;99.90;;;;;;5059285;28;20123;-62
2022/01/06 08:21:38;;;;;;;0.00;0.00;;;0.00;99.90;;;;;;5060945;28;20068;-62
2022/01/06 08:24:04;;;;;;;0.00;0.00;;;0.00;99.90;;;;;;5046830;28;20063;-62
2022/01/06 08:26:30;;;;;;;0.00;0.00;;;0.00;99.90;;;;;;5060865;28;20041;-61
2022/01/06 08:28:56;;;;;;;0.00;0.00;;;0.70;99.90;;;;;;4988718;28;20277;-62
2022/01/06 08:31:23;;;;;;;0.00;0.00;;;0.00;99.90;;;;;;4960021;28;20090;-62
2022/01/06 08:33:48;;;;;;;0.00;0.00;;;0.00;99.90;;;;;;4958529;28;20735;-61
2022/01/06 08:36:14;;;;;;;0.00;0.00;;;-0.10;99.90;;;;;;4958817;28;20145;-62
2022/01/06 08:38:40;;;;;;;0.10;0.10;;;-0.10;99.90;;;;;;4959122;28;20078;-62
2022/01/06 08:41:06;;;;;;;0.00;0.00;;;-0.10;99.90;;;;;;4959489;28;20058;-61
2022/01/06 08:43:31;;;;;;;0.00;0.00;;;0.60;99.90;;;;;;4958334;28;20043;-61
2022/01/06 08:45:58;;;;;;;0.00;0.00;;;0.00;99.90;;;;;;4958675;28;20059;-61
2022/01/06 08:48:29;;;;;;;0.00;0.00;;;0.00;99.90;;;;;;4942094;28;20082;-62
2022/01/06 08:50:54;;;;;;;0.00;0.00;;;0.20;99.90;;;;;;4957891;28;20054;-61
2022/01/06 08:53:24;;;;;;;0.00;0.00;;;0.30;99.90;;;;;;4957298;28;20050;-61
2022/01/06 08:55:49;;;;;;;0.00;0.00;;;1.70;99.90;;;;;;4959115;28;20049;-68
2022/01/06 08:58:16;;;;;;;0.00;0.00;;;0.40;99.90;;;;;;4958635;28;20457;-68
2022/01/06 09:00:43;;;;;;;0.00;0.00;;;0.30;99.90;;;;;;4969417;28;20066;-68
2022/01/06 09:03:09;;;;;;;0.00;0.00;;;0.40;99.90;;;;;;4977513;28;20054;-69
2022/01/06 09:05:35;;;;;;;0.00;0.00;;;0.60;99.90;;;;;;4976677;28;20053;-68
2022/01/06 09:08:01;;;;;;;0.00;0.00;;;0.70;99.90;;;;;;4960081;28;20130;-69
2022/01/06 09:10:30;;;;;;;0.00;0.00;;;0.80;99.90;;;;;;4977883;28;20062;-68
2022/01/06 09:12:56;;;;;;;0.00;0.00;;;0.90;99.90;;;;;;4975885;28;20045;-67
2022/01/06 09:15:22;;;;;;;0.00;0.00;;;2.50;99.90;;;;;;4977705;28;20077;-67
2022/01/06 09:17:47;;;;;;;0.00;0.00;;;1.10;99.90;;;;;;4966725;28;20168;-67
2022/01/06 09:20:13;;;;;;;0.00;0.00;;;1.20;99.90;;;;;;4956879;28;20054;-69
2022/01/06 09:22:42;;;;;;;4.25;4.00;;;1.20;99.90;;;;;;4956825;28;20058;-69
2022/01/06 09:25:09;;;;;;;0.00;0.00;;;3.00;99.90;;;;;;4957494;28;20480;-68
2022/01/06 09:27:35;;;;;;;0.00;0.00;;;1.40;99.90;;;;;;4960363;28;20053;-69
2022/01/06 09:30:01;;;;;;;0.00;0.00;;;1.50;99.90;;;;;;4970565;28;20066;-68
2022/01/06 09:32:27;;;;;;;0.00;0.00;;;1.60;99.90;;;;;;4956381;28;20050;-69
2022/01/06 09:34:52;;;;;;;0.00;0.00;;;1.60;99.90;;;;;;4956758;28;20055;-69
2022/01/06 09:37:18;;;;;;;0.00;0.00;;;1.80;99.90;;;;;;4957517;28;20061;-69
2022/01/06 09:39:47;;;;;;;0.00;0.00;;;1.90;99.90;;;;;;4956781;28;20166;-69
2022/01/06 09:42:13;;;;;;;0.00;0.00;;;2.10;99.90;;;;;;4958214;28;20119;-68
2022/01/06 09:44:39;;;;;;;0.00;0.00;;;2.20;99.90;;;;;;4958301;28;20521;-68
2022/01/06 09:47:07;;;;;;;0.00;0.00;;;2.60;99.90;;;;;;4958448;28;20112;-68
2022/01/06 09:49:42;;;;;;;0.10;0.10;;;3.20;99.90;;;;;;4957745;28;20510;-69
2022/01/06 09:52:08;;;;;;;0.00;0.00;;;3.90;99.90;;;;;;4957659;28;20089;-69
2022/01/06 09:54:35;;;;;;;0.00;0.00;;;4.40;99.90;;;;;;4957104;28;20058;-67
2022/01/06 09:57:01;;;;;;;0.00;0.00;;;5.20;99.90;;;;;;4957653;28;20055;-68
2022/01/06 09:59:27;;;;;;;1.55;0.52;;;5.30;99.90;;;;;;4956877;28;20050;-69
2022/01/06 10:01:54;;;;;;;0.00;0.00;;;6.30;99.90;;;;;;4956680;28;20047;-70
2022/01/06 10:04:27;;;;;;;0.00;0.00;;;5.40;99.90;;;;;;4956898;28;20070;-68
2022/01/06 10:07:06;;;;;;;0.00;0.00;;;5.60;99.90;;;;;;4955552;28;20352;-69
2022/01/06 10:09:34;;;;;;;0.00;0.00;;;5.40;99.90;;;;;;4958582;28;20686;-69
2022/01/06 10:12:03;;;;;;;0.00;0.00;;;5.70;99.90;;;;;;4956957;28;20370;-69
2022/01/06 10:14:45;;;;;;;0.00;0.00;;;6.30;99.90;;;;;;4956912;28;20177;-69
2022/01/06 10:17:32;;;;;;;0.00;0.00;;;6.00;99.90;;;;;;4956689;28;20130;-69
2022/01/06 10:20:12;;;;;;;0.00;0.00;;;6.10;99.90;;;;;;4959662;28;20055;-69
2022/01/06 10:22:49;;;;;;;0.00;0.00;;;6.20;99.90;;;;;;4959195;28;20047;-68
2022/01/06 10:25:16;;;;;;;0.10;0.10;;;7.00;99.90;;;;;;4960039;28;20076;-69
2022/01/06 10:27:45;;;;;;;0.00;0.00;;;5.90;99.90;;;;;;4963139;28;20099;-69
2022/01/06 10:30:12;;;;;;;0.00;0.00;;;6.00;99.90;;;;;;4968299;28;20057;-70
2022/01/06 10:32:39;;;;;;;0.08;0.08;;;6.20;99.90;;;;;;4960770;28;20047;-68
2022/01/06 10:35:06;;;;;;;0.00;0.00;;;6.40;99.90;;;;;;4959788;28;20055;-69
2022/01/06 10:37:41;;;;;;;0.32;0.32;;;6.30;99.90;;;;;;4959543;28;20054;-68
2022/01/06 10:40:10;;;;;;;;;;;6.50;99.90;;;;;;4943680;28;20262;-68
2022/01/06 10:42:39;;;;;;;0.05;0.05;;;6.40;99.90;;;;;;4961470;28;19969;-69
2022/01/06 10:45:15;;;;;;;0.00;0.00;;;6.50;99.90;;;;;;4960690;28;20043;-69
2022/01/06 10:47:42;;;;;;;0.00;0.00;;;6.70;99.90;;;;;;4959878;28;20123;-68
2022/01/06 10:50:27;;;;;;;0.00;0.00;;;6.70;99.90;;;;;;4959676;28;20066;-68
2022/01/06 10:53:01;;;;;;;0.00;0.00;;;6.70;99.90;;;;;;4960148;28;20327;-69
2022/01/06 10:55:32;;;;;;;0.00;0.00;;;7.00;99.90;;;;;;4961022;28;20050;-68
2022/01/06 10:58:05;;;;;;;0.00;0.00;;;8.10;99.90;;;;;;4960648;28;20061;-69
2022/01/06 11:00:34;;;;;;;0.00;0.00;;;7.00;99.90;;;;;;4959421;28;20375;-69
2022/01/06 11:03:27;;;;;;;0.00;0.00;;;7.10;99.90;;;;;;4960788;28;20051;-70
2022/01/06 11:05:55;;;;;;;0.00;0.00;;;7.40;99.90;;;;;;4958386;28;20144;-69
2022/01/06 11:08:27;;;;;;;0.00;0.00;;;7.60;99.90;;;;;;4958470;28;20051;-69
2022/01/06 11:13:44;;;;;;;0.00;0.00;;;7.70;99.90;;;;;;4960299;28;20082;-69
2022/01/06 11:16:15;;;;;;;0.00;0.00;;;7.60;99.90;;;;;;4958770;28;20447;-69
2022/01/06 11:18:43;;;;;;;0.05;0.05;;;7.40;99.90;;;;;;4959143;28;20047;-68
2022/01/06 11:21:13;;;;;;;0.00;0.00;;;7.60;99.90;;;;;;4960613;28;20418;-68
2022/01/06 11:23:39;;;;;;;0.00;0.00;;;7.60;99.90;;;;;;4959484;28;20078;-69
2022/01/06 11:26:13;;;;;;;0.00;0.00;;;7.90;99.90;;;;;;4960252;28;20039;-68
2022/01/06 11:28:40;;;;;;;0.00;0.00;;;7.60;99.90;;;;;;4966496;28;20137;-69
2022/01/06 11:31:17;;;;;;;0.00;0.00;;;7.60;99.90;;;;;;4962789;28;20088;-69
2022/01/06 11:33:45;;;;;;;0.00;0.00;;;7.60;99.90;;;;;;4958765;28;20046;-69
2022/01/06 11:36:21;;;;;;;0.00;0.00;;;8.70;99.90;;;;;;4958933;28;20065;-70
2022/01/06 11:38:48;;;;;;;0.00;0.00;;;8.00;99.90;;;;;;4958071;28;20482;-71
2022/01/06 11:41:14;;;;;;;0.00;0.00;;;8.20;99.90;;;;;;4960020;28;20051;-71
2022/01/06 11:43:42;;;;;;;0.00;0.00;;;8.20;99.90;;;;;;4959692;28;20077;-71
2022/01/06 11:46:09;;;;;;;0.00;0.00;;;8.10;99.90;;;;;;4960446;28;20052;-71
2022/01/06 11:49:04;;;;;;;0.00;0.00;;;8.30;99.90;;;;;;4959239;28;20509;-71
2022/01/06 11:51:32;;;;;;;0.00;0.00;;;8.60;99.90;;;;;;4967127;28;20116;-68
2022/01/06 11:54:10;;;;;;;0.00;0.00;;;8.30;99.90;;;;;;4959778;28;20059;-68
2022/01/06 11:56:47;;;;;;;0.00;0.00;;;9.50;99.90;;;;;;4959837;28;20086;-68
2022/01/06 11:59:13;;;;;;;0.00;0.00;;;8.20;99.90;;;;;;4942400;28;20039;-68
2022/01/06 12:01:47;;;;;;;0.00;0.00;;;8.10;99.90;;;;;;4958637;28;20051;-69
2022/01/06 12:04:14;;;;;;;0.00;0.00;;;8.00;99.90;;;;;;4958613;28;20051;-69
2022/01/06 12:06:41;;;;;;;0.00;0.00;;;8.00;99.90;;;;;;4957650;28;20058;-70
2022/01/06 12:09:15;;;;;;;0.00;0.00;;;8.40;99.90;;;;;;4962359;28;20054;-68
2022/01/06 12:11:40;;;;;;;0.10;0.10;;;7.40;99.90;;;;;;4980740;28;20058;-68
2022/01/06 12:14:06;;;;;;;0.00;0.00;;;7.50;99.90;;;;;;4977558;28;20074;-68
2022/01/06 12:16:34;;;;;;;0.00;0.00;;;7.30;99.90;;;;;;4962181;28;20050;-66
2022/01/06 12:19:13;;;;;;;0.00;0.00;;;8.40;99.90;;;;;;4978398;28;20069;-68
2022/01/06 12:21:38;;;;;;;0.00;0.00;;;7.20;99.90;;;;;;4978500;28;20054;-66
2022/01/06 12:24:06;;;;;;;0.00;0.00;;;7.20;99.90;;;;;;4977557;28;20046;-66
2022/01/06 12:26:33;;;;;;;0.00;0.00;;;7.10;99.90;;;;;;4977728;28;20481;-66
2022/01/06 12:29:00;;;;;;;0.00;0.00;;;6.90;99.90;;;;;;4972832;28;20077;-67
2022/01/06 12:31:28;;;;;;;0.00;0.00;;;8.20;99.90;;;;;;4960368;28;20078;-69
2022/01/06 12:33:59;;;;;;;0.00;0.00;;;7.00;99.90;;;;;;4970624;28;20125;-67
2022/01/06 12:36:26;;;;;;;0.00;0.00;;;7.00;99.90;;;;;;4976723;28;20042;-66
2022/01/06 12:38:52;;;;;;;0.00;0.00;;;7.70;99.90;;;;;;4975649;28;20066;-66
2022/01/06 12:41:27;;;;;;;0.00;0.00;;;7.00;99.90;;;;;;4977832;28;20169;-65
2022/01/06 12:43:55;;;;;;;0.00;0.00;;;6.80;99.90;;;;;;4976472;28;20582;-66
2022/01/06 12:46:21;;;;;;;0.00;0.00;;;6.90;99.90;;;;;;4978399;28;20061;-66
2022/01/06 12:48:49;;;;;;;0.73;0.35;;;6.80;99.90;;;;;;4978143;28;20591;-66
2022/01/06 12:51:24;;;;;;;0.00;0.00;;;6.70;99.90;;;;;;4965174;28;20057;-66
2022/01/06 12:53:51;;;;;;;;;;;6.90;99.90;;;;;;4958234;28;20043;-66
2022/01/06 12:56:32;;;;;;;0.00;0.00;;;6.90;99.90;;;;;;4959049;28;19972;-68
2022/01/06 12:58:59;;;;;;;2.63;1.13;;;6.70;99.90;;;;;;4958558;28;20137;-67
2022/01/06 13:01:27;;;;;;;0.00;0.00;;;6.70;99.90;;;;;;4958806;28;20051;-66
2022/01/06 13:03:54;;;;;;;0.10;0.10;;;6.60;99.90;;;;;;4957414;28;20070;-65
2022/01/06 13:06:27;;;;;;;0.00;0.00;;;7.50;99.90;;;;;;4956933;28;20108;-66
2022/01/06 13:08:58;;;;;;;0.00;0.00;;;6.50;99.90;;;;;;4957269;28;20160;-66
2022/01/06 13:11:29;;;;;;;0.00;0.00;;;6.50;99.90;;;;;;4958686;28;20124;-64